Time;durP1;ratioP1;P1;durP2;ratioP2;P2;SDS_P1;SDS_P2;PMS_P1;PMS_P2;Temp;Humidity;BMP_temperature;BMP_pressure;BME280_temperature;BME280_humidity;BME280_pressure;Samples;Min_cycle;Max_cycle;Signal;HPM_P1;HPM_P2
2024/02/07 00:01:16;;;;;;;107.50;79.80;;;19.10;72.70;;;;;;5062506;28;20044;-67
2024/02/07 00:03:42;;;;;;;109.00;81.57;;;19.20;72.80;;;;;;5051649;28;20088;-67
2024/02/07 00:06:08;;;;;;;107.88;78.32;;;19.20;72.80;;;;;;5058733;28;20017;-67
2024/02/07 00:08:33;;;;;;;111.43;80.68;;;19.20;72.80;;;;;;5063272;28;20413;-67
2024/02/07 00:10:59;;;;;;;107.82;78.00;;;19.20;72.80;;;;;;5062995;28;20032;-67
2024/02/07 00:13:24;;;;;;;102.60;76.82;;;19.20;72.90;;;;;;5063696;28;20028;-68
2024/02/07 00:15:50;;;;;;;104.53;74.10;;;19.20;72.90;;;;;;5069408;28;20551;-67
2024/02/07 00:18:17;;;;;;;106.57;75.78;;;19.20;72.90;;;;;;5056690;28;20045;-69
2024/02/07 00:20:43;;;;;;;101.78;74.72;;;19.20;73.00;;;;;;5066465;28;20477;-69
2024/02/07 00:23:09;;;;;;;100.60;74.25;;;19.20;73.00;;;;;;5066549;28;20050;-69
2024/02/07 00:25:34;;;;;;;101.57;73.43;;;19.20;73.00;;;;;;5063749;28;20036;-69
2024/02/07 00:28:00;;;;;;;100.57;73.30;;;19.20;73.10;;;;;;5054768;28;20047;-68
2024/02/07 00:30:26;;;;;;;95.82;69.32;;;19.20;73.10;;;;;;5057565;28;20043;-68
2024/02/07 00:32:51;;;;;;;102.38;71.22;;;19.20;73.20;;;;;;5066612;28;20491;-68
2024/02/07 00:35:17;;;;;;;100.07;72.47;;;19.20;73.30;;;;;;5065976;28;20024;-66
2024/02/07 00:37:43;;;;;;;98.07;70.43;;;19.20;73.30;;;;;;5054892;28;20538;-66
2024/02/07 00:40:11;;;;;;;97.65;69.85;;;19.20;73.30;;;;;;5054812;28;20558;-66
2024/02/07 00:42:37;;;;;;;98.78;68.97;;;19.20;73.30;;;;;;5066065;28;20027;-66
2024/02/07 00:45:03;;;;;;;93.22;67.05;;;19.20;73.40;;;;;;5066601;28;20519;-67
2024/02/07 00:47:29;;;;;;;96.18;68.70;;;19.20;73.30;;;;;;5064197;28;20048;-66
2024/02/07 00:49:54;;;;;;;89.88;65.75;;;19.30;73.40;;;;;;5054591;28;20044;-66
2024/02/07 00:52:21;;;;;;;91.25;66.68;;;19.30;73.40;;;;;;5056176;28;20029;-67
2024/02/07 00:54:46;;;;;;;90.88;65.20;;;19.30;73.50;;;;;;5066274;28;20080;-66
2024/02/07 00:57:12;;;;;;;89.82;64.75;;;19.30;73.50;;;;;;5065835;28;20025;-67
2024/02/07 00:59:38;;;;;;;91.40;66.43;;;19.30;73.50;;;;;;5062949;28;20155;-67
2024/02/07 01:02:03;;;;;;;89.75;66.45;;;19.30;73.60;;;;;;5062287;28;20025;-66
2024/02/07 01:04:29;;;;;;;86.00;64.05;;;19.30;73.60;;;;;;5057372;28;20017;-66
2024/02/07 01:06:55;;;;;;;86.50;63.00;;;19.30;73.50;;;;;;5073447;28;20023;-66
2024/02/07 01:09:21;;;;;;;86.97;61.63;;;19.30;73.50;;;;;;5063784;28;20369;-67
2024/02/07 01:11:47;;;;;;;82.72;59.92;;;19.30;73.50;;;;;;5053737;28;20480;-69
2024/02/07 01:14:13;;;;;;;82.28;61.03;;;19.30;73.50;;;;;;5060748;28;20040;-69
2024/02/07 01:16:40;;;;;;;86.13;59.95;;;19.30;73.50;;;;;;5065785;28;20021;-67
2024/02/07 01:19:06;;;;;;;82.72;58.20;;;19.30;73.50;;;;;;5065861;28;20031;-67
2024/02/07 01:21:32;;;;;;;86.70;59.80;;;19.30;73.70;;;;;;5061748;28;20028;-66
2024/02/07 01:23:58;;;;;;;79.35;58.65;;;19.30;73.70;;;;;;5053684;28;20025;-66
2024/02/07 01:26:23;;;;;;;77.00;56.33;;;19.30;73.80;;;;;;5055919;28;20056;-66
2024/02/07 01:28:50;;;;;;;77.72;57.53;;;19.30;73.80;;;;;;5065563;28;20025;-66
2024/02/07 01:31:16;;;;;;;78.88;56.08;;;19.30;73.90;;;;;;5063664;28;20016;-66
2024/02/07 01:33:42;;;;;;;78.32;56.92;;;19.30;73.90;;;;;;5053888;28;20118;-66
2024/02/07 01:36:08;;;;;;;76.20;55.47;;;19.30;73.90;;;;;;5053740;28;20480;-65
2024/02/07 01:38:34;;;;;;;80.28;55.80;;;19.30;73.90;;;;;;5065269;28;20031;-67
2024/02/07 01:40:59;;;;;;;76.20;56.03;;;19.30;74.00;;;;;;5064787;28;20029;-67
2024/02/07 01:43:33;;;;;;;73.05;53.55;;;19.30;74.00;;;;;;5063414;28;20028;-68
2024/02/07 01:46:02;;;;;;;77.45;54.78;;;19.30;74.00;;;;;;5053643;28;20013;-67
2024/02/07 01:48:29;;;;;;;73.20;53.00;;;19.30;74.00;;;;;;5056328;28;20414;-67
2024/02/07 01:50:55;;;;;;;70.97;52.63;;;19.30;74.00;;;;;;5064858;28;20078;-66
2024/02/07 01:53:22;;;;;;;71.38;53.10;;;19.30;74.00;;;;;;5062414;28;20032;-68
2024/02/07 01:55:51;;;;;;;71.07;51.15;;;19.30;74.10;;;;;;5053507;28;20045;-68
2024/02/07 01:58:16;;;;;;;73.90;52.33;;;19.20;74.10;;;;;;5054422;28;20021;-68
2024/02/07 02:00:43;;;;;;;76.55;51.90;;;19.30;74.20;;;;;;5064572;28;20086;-68
2024/02/07 02:03:09;;;;;;;70.28;50.78;;;19.30;74.20;;;;;;5063497;28;20078;-68
2024/02/07 02:05:34;;;;;;;68.32;50.72;;;19.30;74.30;;;;;;5061768;28;20013;-67
2024/02/07 02:08:02;;;;;;;68.53;50.50;;;19.30;74.30;;;;;;5053008;28;20029;-69
2024/02/07 02:10:28;;;;;;;67.95;49.97;;;19.30;74.40;;;;;;5055536;28;20031;-71
2024/02/07 02:12:54;;;;;;;71.35;50.17;;;19.30;74.40;;;;;;5064744;28;20028;-71
2024/02/07 02:15:22;;;;;;;67.30;48.00;;;19.30;74.40;;;;;;5066384;28;20028;-70
2024/02/07 02:17:48;;;;;;;68.47;49.00;;;19.30;74.50;;;;;;5059654;28;20099;-69
2024/02/07 02:20:14;;;;;;;69.40;47.90;;;19.30;74.50;;;;;;5070420;28;20039;-68
2024/02/07 02:22:55;;;;;;;66.90;47.53;;;19.30;74.40;;;;;;5058641;28;20527;-70
2024/02/07 02:25:52;;;;;;;62.90;46.47;;;19.30;74.50;;;;;;5053962;28;20029;-69
2024/02/07 02:28:21;;;;;;;60.50;45.78;;;19.30;74.50;;;;;;5064304;28;20024;-69
2024/02/07 02:30:54;;;;;;;62.67;45.03;;;19.30;74.50;;;;;;5063955;28;20031;-70
2024/02/07 02:33:26;;;;;;;59.40;43.40;;;19.30;74.60;;;;;;5056805;28;20616;-69
2024/02/07 02:35:53;;;;;;;64.90;44.33;;;19.30;74.60;;;;;;5051942;28;20021;-69
2024/02/07 02:38:20;;;;;;;58.38;44.78;;;19.30;74.60;;;;;;5060503;28;20074;-71
2024/02/07 02:40:48;;;;;;;56.15;42.17;;;19.30;74.50;;;;;;5062986;28;20067;-71
2024/02/07 02:43:13;;;;;;;59.10;43.13;;;19.30;74.60;;;;;;5070508;28;20104;-68
2024/02/07 02:45:39;;;;;;;56.80;41.58;;;19.30;74.60;;;;;;5062229;28;20063;-68
2024/02/07 02:48:05;;;;;;;56.55;40.72;;;19.30;74.50;;;;;;5071435;28;20439;-71
2024/02/07 02:50:32;;;;;;;57.75;41.97;;;19.30;74.80;;;;;;5059062;28;20024;-71
2024/02/07 02:52:58;;;;;;;54.20;39.85;;;19.30;74.80;;;;;;5059079;28;20012;-69
2024/02/07 02:55:25;;;;;;;53.45;38.72;;;19.30;74.80;;;;;;5067900;28;20487;-70
2024/02/07 02:57:50;;;;;;;55.17;39.95;;;19.30;74.80;;;;;;5059552;28;20096;-70
2024/02/07 03:00:20;;;;;;;57.08;39.90;;;19.30;74.80;;;;;;5060377;28;20104;-70
2024/02/07 03:02:46;;;;;;;53.70;40.15;;;19.30;74.80;;;;;;5068965;28;20115;-70
2024/02/07 03:08:05;;;;;;;56.08;40.30;;;19.30;74.80;;;;;;5057392;28;20019;-68
2024/02/07 03:10:34;;;;;;;53.08;38.20;;;19.30;74.80;;;;;;5062436;28;20044;-67
2024/02/07 03:13:00;;;;;;;48.40;37.08;;;19.30;74.80;;;;;;5056477;28;20028;-67
2024/02/07 03:15:26;;;;;;;54.50;37.08;;;19.30;74.70;;;;;;5066952;28;20099;-71
2024/02/07 03:17:52;;;;;;;52.30;37.63;;;19.30;74.70;;;;;;5059486;28;20021;-68
2024/02/07 03:20:18;;;;;;;53.20;37.70;;;19.30;74.90;;;;;;5060508;28;20028;-69
2024/02/07 03:22:44;;;;;;;47.95;34.40;;;19.30;74.90;;;;;;5063679;28;20483;-71
2024/02/07 03:25:16;;;;;;;50.67;37.50;;;19.30;74.90;;;;;;5070757;28;20392;-71
2024/02/07 03:27:44;;;;;;;51.15;34.92;;;19.30;75.00;;;;;;5066672;28;20013;-72
2024/02/07 03:30:16;;;;;;;48.13;34.10;;;19.30;75.00;;;;;;5051791;28;20036;-73
2024/02/07 03:32:44;;;;;;;47.83;34.20;;;19.30;74.80;;;;;;5063114;28;20025;-72
2024/02/07 03:35:10;;;;;;;45.33;32.53;;;19.30;74.90;;;;;;5054781;28;20017;-73
2024/02/07 03:37:36;;;;;;;49.95;35.90;;;19.30;75.00;;;;;;5070323;28;20502;-71
2024/02/07 03:40:05;;;;;;;46.00;32.95;;;19.30;74.90;;;;;;5063453;28;20028;-71
2024/02/07 03:42:35;;;;;;;47.05;32.38;;;19.40;75.00;;;;;;5061193;28;20433;-72
2024/02/07 03:45:04;;;;;;;44.92;33.00;;;19.30;75.00;;;;;;5070924;28;20048;-70
2024/02/07 03:47:30;;;;;;;41.30;31.42;;;19.40;75.10;;;;;;5063269;28;20025;-71
2024/02/07 03:49:59;;;;;;;43.97;32.00;;;19.40;75.20;;;;;;5074734;28;20012;-71
2024/02/07 03:52:25;;;;;;;48.00;33.55;;;19.40;75.20;;;;;;5066671;28;20033;-71
2024/02/07 03:54:51;;;;;;;43.83;31.75;;;19.40;75.30;;;;;;5074104;28;20400;-71
2024/02/07 03:57:20;;;;;;;44.42;31.40;;;19.40;75.30;;;;;;5073243;28;20089;-71
2024/02/07 03:59:50;;;;;;;43.35;30.38;;;19.40;75.30;;;;;;5058950;28;20020;-68
2024/02/07 04:02:22;;;;;;;43.80;30.42;;;19.40;75.40;;;;;;5073328;28;20031;-70
2024/02/07 04:04:52;;;;;;;43.38;29.83;;;19.40;75.30;;;;;;5066105;28;20024;-67
2024/02/07 04:07:25;;;;;;;44.33;30.38;;;19.40;75.80;;;;;;5066162;28;20429;-65
2024/02/07 04:09:52;;;;;;;40.67;28.30;;;19.40;75.60;;;;;;5068477;28;20032;-65
2024/02/07 05:17:19;;;;;;;29.45;20.70;;;19.40;76.00;;;;;;5019137;28;20517;-67
2024/02/07 05:19:45;;;;;;;30.58;20.67;;;19.40;75.80;;;;;;5026082;28;20034;-66
2024/02/07 05:22:11;;;;;;;29.80;20.63;;;19.40;75.90;;;;;;5024022;28;20397;-66
2024/02/07 05:24:38;;;;;;;31.98;20.75;;;19.40;75.90;;;;;;5021287;28;20017;-67
2024/02/07 05:27:06;;;;;;;28.88;20.55;;;19.30;75.80;;;;;;5021348;28;20021;-67
2024/02/07 05:29:35;;;;;;;29.77;19.65;;;19.40;75.80;;;;;;5024350;28;20477;-67
2024/02/07 05:32:01;;;;;;;32.05;20.73;;;19.40;75.80;;;;;;5025273;28;20374;-67
2024/02/07 05:34:27;;;;;;;26.77;18.33;;;19.30;75.80;;;;;;5020907;28;20109;-67
2024/02/07 05:36:53;;;;;;;29.48;19.02;;;19.30;75.80;;;;;;5020925;28;20025;-68
2024/02/07 05:39:19;;;;;;;27.05;19.75;;;19.30;75.80;;;;;;5022214;28;20030;-66
2024/02/07 05:41:45;;;;;;;28.25;18.50;;;19.40;75.70;;;;;;5024395;28;20651;-67
2024/02/07 05:44:11;;;;;;;28.98;19.63;;;19.30;75.70;;;;;;5024019;28;20017;-67
2024/02/07 05:46:37;;;;;;;29.40;19.30;;;19.30;75.70;;;;;;5020909;28;20014;-67
2024/02/07 05:49:03;;;;;;;27.65;18.73;;;19.30;75.70;;;;;;5021064;28;20068;-67
2024/02/07 05:51:29;;;;;;;28.35;17.83;;;19.30;75.70;;;;;;5023550;28;20025;-66
2024/02/07 05:53:54;;;;;;;35.85;18.85;;;19.30;75.70;;;;;;5026270;28;20393;-66
2024/02/07 05:56:20;;;;;;;31.38;18.30;;;19.30;75.80;;;;;;5024554;28;20021;-68
2024/02/07 05:58:51;;;;;;;39.38;17.67;;;19.30;75.90;;;;;;5023948;28;20097;-67
2024/02/07 06:01:17;;;;;;;28.33;16.20;;;19.40;75.70;;;;;;5023092;28;20025;-69
2024/02/07 06:03:50;;;;;;;30.55;17.35;;;19.40;75.90;;;;;;5019912;28;20097;-67
2024/02/07 06:06:24;;;;;;;32.10;15.77;;;19.40;76.00;;;;;;5023052;28;20022;-67
2024/02/07 06:08:51;;;;;;;31.27;16.65;;;19.40;75.80;;;;;;5023783;28;20028;-68
2024/02/07 06:11:17;;;;;;;29.48;16.38;;;19.40;75.60;;;;;;5023725;28;20025;-68
2024/02/07 06:13:43;;;;;;;26.88;15.40;;;19.50;75.50;;;;;;5022673;28;20018;-67
2024/02/07 06:16:09;;;;;;;24.40;15.00;;;19.50;75.30;;;;;;5021275;28;20435;-66
2024/02/07 06:18:38;;;;;;;20.95;14.70;;;19.50;75.10;;;;;;5020940;28;20029;-67
2024/02/07 06:21:03;;;;;;;25.88;14.38;;;19.40;75.10;;;;;;5021073;28;20065;-67
2024/02/07 06:23:29;;;;;;;20.77;14.57;;;19.40;75.00;;;;;;5023890;28;20083;-67
2024/02/07 06:25:55;;;;;;;22.80;14.30;;;19.40;74.70;;;;;;5024784;28;20025;-67
2024/02/07 06:28:21;;;;;;;19.33;13.73;;;19.40;74.50;;;;;;5021915;28;20393;-66
2024/02/07 06:30:47;;;;;;;25.73;14.45;;;19.40;74.30;;;;;;5026288;28;20100;-67
2024/02/07 06:33:13;;;;;;;42.17;15.32;;;19.40;75.50;;;;;;5014155;28;20014;-66
2024/02/07 06:35:38;;;;;;;27.85;14.27;;;19.40;76.90;;;;;;5023304;28;20498;-66
2024/02/07 06:38:04;;;;;;;34.10;14.07;;;19.40;76.10;;;;;;5023405;28;20049;-65
2024/02/07 06:40:29;;;;;;;40.90;13.85;;;19.40;75.60;;;;;;5020098;28;20105;-66
2024/02/07 06:42:56;;;;;;;29.30;14.10;;;19.40;75.50;;;;;;5019682;28;20033;-66
2024/02/07 06:45:22;;;;;;;33.90;13.25;;;19.40;75.30;;;;;;5021465;28;20396;-64
2024/02/07 06:47:47;;;;;;;25.88;12.85;;;19.40;75.20;;;;;;5019727;28;20097;-66
2024/02/07 06:50:13;;;;;;;29.08;12.77;;;19.40;75.10;;;;;;5016033;28;20093;-67
2024/02/07 06:52:40;;;;;;;14.27;7.88;;;19.40;74.80;;;;;;5031191;28;20043;-65
2024/02/07 06:55:06;;;;;;;9.88;5.07;;;18.90;67.90;;;;;;5031687;28;20032;-65
2024/02/07 06:57:31;;;;;;;7.15;3.85;;;18.50;65.20;;;;;;5031384;28;20025;-67
2024/02/07 06:59:57;;;;;;;32.63;9.27;;;18.30;64.20;;;;;;5029722;28;20022;-67
2024/02/07 07:02:23;;;;;;;52.90;10.15;;;18.40;72.20;;;;;;5031392;28;20504;-67
2024/02/07 07:04:49;;;;;;;31.55;9.27;;;18.50;72.10;;;;;;5032397;28;20053;-67
2024/02/07 07:07:15;;;;;;;35.40;9.93;;;18.60;72.60;;;;;;5032770;28;20027;-68
2024/02/07 07:09:41;;;;;;;30.95;9.52;;;18.70;72.90;;;;;;5032790;28;20108;-68
2024/02/07 07:12:07;;;;;;;41.47;9.38;;;18.80;73.00;;;;;;5033780;28;20022;-67
2024/02/07 07:14:37;;;;;;;62.13;10.80;;;18.90;72.90;;;;;;5032725;28;20549;-67
2024/02/07 07:17:03;;;;;;;42.30;10.23;;;19.00;72.90;;;;;;5034630;28;20036;-66
2024/02/07 07:19:28;;;;;;;44.67;11.25;;;19.00;73.30;;;;;;5031323;28;20404;-69
2024/02/07 07:21:55;;;;;;;51.65;12.90;;;19.10;73.40;;;;;;5032255;28;20393;-71
2024/02/07 07:24:21;;;;;;;52.10;13.30;;;19.10;73.20;;;;;;5034921;28;20030;-71
2024/02/07 07:26:46;;;;;;;62.08;13.20;;;19.10;73.10;;;;;;5033253;28;20108;-66
2024/02/07 07:29:12;;;;;;;50.55;12.65;;;19.10;73.10;;;;;;5031955;28;20113;-66
2024/02/07 07:31:37;;;;;;;50.40;12.80;;;19.20;73.00;;;;;;5032044;28;20401;-66
2024/02/07 07:34:03;;;;;;;47.85;12.85;;;19.20;72.90;;;;;;5031625;28;20076;-66
2024/02/07 07:36:29;;;;;;;39.80;12.18;;;19.20;72.90;;;;;;5031642;28;20084;-66
2024/02/07 07:38:54;;;;;;;39.88;12.07;;;19.20;72.90;;;;;;5031427;28;20081;-67
2024/02/07 07:41:20;;;;;;;36.20;12.02;;;19.20;72.90;;;;;;5031556;28;20104;-66
2024/02/07 07:43:46;;;;;;;45.03;11.43;;;19.20;72.90;;;;;;5031634;28;20045;-66
2024/02/07 07:46:12;;;;;;;48.40;10.77;;;19.20;72.90;;;;;;5032627;28;20100;-66
2024/02/07 07:48:38;;;;;;;31.52;9.32;;;19.10;72.90;;;;;;5033098;28;20396;-66
2024/02/07 07:51:06;;;;;;;40.53;11.63;;;19.20;72.90;;;;;;5031368;28;20025;-66
2024/02/07 07:53:32;;;;;;;29.63;10.27;;;19.20;72.90;;;;;;5032772;28;20571;-66
2024/02/07 07:55:57;;;;;;;36.78;10.27;;;19.20;72.90;;;;;;5032229;28;20037;-66
2024/02/07 07:58:23;;;;;;;27.17;9.98;;;19.10;72.80;;;;;;5032443;28;20029;-66
2024/02/07 08:00:49;;;;;;;24.33;9.32;;;19.20;72.80;;;;;;5030088;28;20087;-66
2024/02/07 08:03:14;;;;;;;37.15;9.98;;;19.10;72.80;;;;;;5032388;28;20037;-66
2024/02/07 08:05:41;;;;;;;33.85;10.30;;;19.10;72.80;;;;;;5032616;28;20024;-66
2024/02/07 08:08:07;;;;;;;33.25;9.98;;;19.20;72.80;;;;;;5031416;28;20076;-66
2024/02/07 08:10:34;;;;;;;26.58;9.98;;;19.10;72.80;;;;;;5029764;28;20497;-67
2024/02/07 08:13:00;;;;;;;32.55;9.57;;;19.10;72.80;;;;;;5029854;28;20076;-66
2024/02/07 08:15:25;;;;;;;28.02;9.52;;;19.20;72.70;;;;;;5030851;28;20057;-66
2024/02/07 08:17:51;;;;;;;27.50;9.20;;;19.10;72.70;;;;;;5030246;28;20491;-66
2024/02/07 08:20:21;;;;;;;28.50;9.75;;;19.10;72.80;;;;;;5031040;28;20029;-66
2024/02/07 08:22:48;;;;;;;22.97;9.83;;;19.10;72.70;;;;;;5031010;28;20041;-66
2024/02/07 08:25:13;;;;;;;21.92;9.10;;;19.10;72.70;;;;;;5031285;28;20022;-67
2024/02/07 08:27:39;;;;;;;21.63;8.40;;;19.10;72.70;;;;;;5032538;28;20079;-67
2024/02/07 08:30:05;;;;;;;21.15;8.65;;;19.10;72.70;;;;;;5032354;28;20033;-66
2024/02/07 08:32:32;;;;;;;22.83;7.50;;;19.10;72.60;;;;;;5032184;28;20033;-67
2024/02/07 08:34:57;;;;;;;31.80;9.60;;;19.10;72.60;;;;;;5035579;28;20027;-67
2024/02/07 08:37:26;;;;;;;26.50;8.85;;;19.10;72.60;;;;;;5038110;28;20025;-66
2024/02/07 08:39:52;;;;;;;27.85;9.02;;;19.10;72.60;;;;;;5037169;28;20040;-66
2024/02/07 08:42:18;;;;;;;23.50;8.68;;;19.10;72.60;;;;;;5034406;28;20029;-67
2024/02/07 08:44:44;;;;;;;22.05;9.07;;;19.10;72.50;;;;;;5034502;28;20033;-66
2024/02/07 08:47:10;;;;;;;23.70;8.90;;;19.10;72.60;;;;;;5032867;28;20021;-66
2024/02/07 08:49:35;;;;;;;17.05;7.10;;;19.10;72.50;;;;;;5034702;28;20161;-66
2024/02/07 08:52:03;;;;;;;19.90;7.90;;;19.10;72.50;;;;;;5032375;28;20087;-66
2024/02/07 08:54:32;;;;;;;29.83;8.15;;;19.10;72.50;;;;;;5034287;28;20022;-66
2024/02/07 08:56:57;;;;;;;23.15;8.38;;;19.10;72.50;;;;;;5034130;28;20021;-66
2024/02/07 08:59:23;;;;;;;22.30;7.65;;;19.10;72.50;;;;;;5034122;28;20084;-66
2024/02/07 09:01:49;;;;;;;15.82;6.93;;;19.10;72.50;;;;;;5033717;28;20033;-66
2024/02/07 09:04:14;;;;;;;15.18;7.00;;;19.20;72.50;;;;;;5033958;28;20469;-66
2024/02/07 09:06:40;;;;;;;18.00;7.43;;;19.10;72.50;;;;;;5033992;28;20438;-67
2024/02/07 09:09:05;;;;;;;15.75;7.13;;;19.10;72.50;;;;;;5033887;28;20048;-66
2024/02/07 09:11:31;;;;;;;17.73;6.97;;;19.10;72.50;;;;;;5032416;28;20017;-66
2024/02/07 09:13:57;;;;;;;20.80;7.88;;;19.10;72.50;;;;;;5033644;28;20041;-66
2024/02/07 09:16:23;;;;;;;18.58;7.13;;;19.10;72.50;;;;;;5033865;28;20432;-66
2024/02/07 09:18:48;;;;;;;18.13;6.40;;;19.10;72.50;;;;;;5033335;28;20452;-66
2024/02/07 09:21:17;;;;;;;20.60;7.45;;;19.10;72.50;;;;;;5033550;28;20033;-66
2024/02/07 09:23:44;;;;;;;19.83;7.07;;;19.10;72.40;;;;;;5033346;28;20037;-66
2024/02/07 09:26:09;;;;;;;19.23;7.18;;;19.10;72.40;;;;;;5033640;28;20489;-66
2024/02/07 09:28:35;;;;;;;17.73;7.40;;;19.10;72.40;;;;;;5033520;28;20063;-66
2024/02/07 09:31:00;;;;;;;15.63;6.63;;;19.00;72.40;;;;;;5033265;28;20021;-66
2024/02/07 09:33:26;;;;;;;14.57;6.15;;;19.10;72.40;;;;;;5033289;28;20021;-66
2024/02/07 09:35:52;;;;;;;15.00;6.70;;;19.00;72.40;;;;;;5033569;28;20072;-66
2024/02/07 09:38:21;;;;;;;14.88;6.70;;;19.10;72.40;;;;;;5033312;28;20029;-66
2024/02/07 09:40:51;;;;;;;16.83;6.72;;;19.00;72.40;;;;;;5033162;28;20032;-66
2024/02/07 09:43:17;;;;;;;20.27;6.75;;;19.10;72.40;;;;;;5033117;28;20021;-66
2024/02/07 09:45:46;;;;;;;14.38;6.00;;;19.00;72.40;;;;;;5033081;28;20116;-66
2024/02/07 09:48:20;;;;;;;15.60;6.25;;;19.00;72.40;;;;;;5033368;28;20048;-66
2024/02/07 09:50:52;;;;;;;16.77;5.93;;;19.10;72.40;;;;;;5032912;28;20092;-66
2024/02/07 09:53:20;;;;;;;12.05;5.10;;;19.00;72.40;;;;;;5033072;28;20032;-66
2024/02/07 09:55:48;;;;;;;16.23;6.63;;;19.00;72.40;;;;;;5032778;28;20028;-66
2024/02/07 09:58:15;;;;;;;12.10;5.90;;;19.10;72.40;;;;;;5033919;28;20028;-66
2024/02/07 10:00:41;;;;;;;13.52;6.13;;;19.00;72.40;;;;;;5033995;28;20393;-66
2024/02/07 10:03:09;;;;;;;15.25;6.57;;;19.10;72.30;;;;;;5033062;28;20022;-66
2024/02/07 10:05:35;;;;;;;14.63;6.38;;;19.10;72.30;;;;;;5033134;28;20025;-66
2024/02/07 10:08:03;;;;;;;14.52;5.80;;;19.00;72.30;;;;;;5032986;28;20555;-66
2024/02/07 10:10:29;;;;;;;12.70;6.03;;;19.00;72.30;;;;;;5032546;28;20036;-66
2024/02/07 10:12:56;;;;;;;14.25;5.72;;;19.00;72.30;;;;;;5032641;28;20073;-66
2024/02/07 10:15:23;;;;;;;10.98;5.70;;;19.10;72.30;;;;;;5032912;28;20037;-66
2024/02/07 10:17:49;;;;;;;14.98;6.10;;;19.00;72.20;;;;;;5032713;28;20030;-66
2024/02/07 10:20:15;;;;;;;10.70;5.20;;;19.10;72.30;;;;;;5032631;28;20028;-66
2024/02/07 10:22:41;;;;;;;14.65;5.47;;;19.00;72.30;;;;;;5055528;23;20167;-65
2024/02/07 10:25:10;;;;;;;11.20;4.90;;;19.00;72.30;;;;;;5069701;28;20055;-67
2024/02/07 10:27:36;;;;;;;12.98;5.68;;;19.00;72.20;;;;;;5071886;28;20025;-68
2024/02/07 10:30:04;;;;;;;12.73;5.82;;;19.00;72.20;;;;;;5070778;28;20081;-68
2024/02/07 10:32:29;;;;;;;9.43;5.32;;;19.00;72.20;;;;;;5072121;28;20024;-68
2024/02/07 10:34:55;;;;;;;13.07;5.30;;;19.00;72.20;;;;;;5072179;28;20027;-69
2024/02/07 10:37:21;;;;;;;10.70;5.40;;;19.00;72.20;;;;;;5072462;28;20032;-68
2024/02/07 10:39:48;;;;;;;12.30;5.20;;;19.00;72.20;;;;;;5070955;28;20457;-68
2024/02/07 10:42:17;;;;;;;11.48;5.03;;;19.00;72.20;;;;;;5072548;28;20025;-68
2024/02/07 10:44:42;;;;;;;12.30;5.60;;;19.00;72.20;;;;;;5072448;28;20112;-68
2024/02/07 10:47:11;;;;;;;12.57;4.75;;;19.00;72.20;;;;;;5072844;28;20052;-69
2024/02/07 10:49:38;;;;;;;8.18;4.72;;;19.00;72.10;;;;;;5072276;28;20495;-68
2024/02/07 10:52:09;;;;;;;8.50;4.68;;;19.00;72.10;;;;;;5072319;28;20480;-69
2024/02/07 10:54:34;;;;;;;12.85;5.03;;;19.00;72.10;;;;;;5072576;28;20514;-68
2024/02/07 10:57:03;;;;;;;10.52;4.85;;;19.00;72.10;;;;;;5070403;28;20037;-69
2024/02/07 10:59:31;;;;;;;9.18;4.50;;;19.00;72.10;;;;;;5071895;28;20020;-68
2024/02/07 11:01:57;;;;;;;9.02;5.20;;;19.00;72.10;;;;;;5071787;28;20028;-69
2024/02/07 11:04:24;;;;;;;13.30;4.45;;;19.00;72.10;;;;;;5071845;28;20029;-68
2024/02/07 11:06:49;;;;;;;8.80;4.70;;;19.00;72.10;;;;;;5072085;28;20021;-69
2024/02/07 11:09:15;;;;;;;7.07;4.38;;;19.00;72.10;;;;;;5071959;28;20017;-69
2024/02/07 11:11:41;;;;;;;8.88;4.13;;;19.00;72.10;;;;;;5071442;28;20484;-69
2024/02/07 11:14:11;;;;;;;10.30;4.35;;;19.00;72.00;;;;;;5071504;28;20115;-68
2024/02/07 11:16:37;;;;;;;11.60;4.60;;;19.00;72.10;;;;;;5071715;28;20024;-69
2024/02/07 11:19:03;;;;;;;8.18;4.93;;;19.00;72.10;;;;;;5071696;28;20020;-69
2024/02/07 11:21:33;;;;;;;11.98;4.78;;;19.00;72.10;;;;;;5070084;28;20043;-69
2024/02/07 11:24:01;;;;;;;11.43;5.18;;;19.00;72.10;;;;;;5071506;28;20112;-69
2024/02/07 11:26:26;;;;;;;8.90;4.70;;;19.00;72.10;;;;;;5071126;28;20021;-69
2024/02/07 11:28:52;;;;;;;7.82;4.47;;;19.00;72.00;;;;;;5071891;28;20021;-69
2024/02/07 11:31:18;;;;;;;10.85;4.60;;;19.00;72.10;;;;;;5071385;28;20032;-69
2024/02/07 11:33:51;;;;;;;8.50;3.88;;;19.00;72.00;;;;;;5071586;28;20078;-69
2024/02/07 11:36:18;;;;;;;8.93;4.18;;;19.00;72.00;;;;;;5071370;28;20033;-69
2024/02/07 11:38:47;;;;;;;12.43;4.57;;;19.00;72.00;;;;;;5071348;28;20028;-69
2024/02/07 11:41:18;;;;;;;8.95;3.85;;;19.00;72.00;;;;;;5071153;28;20033;-69
2024/02/07 11:43:44;;;;;;;9.23;4.40;;;19.00;72.00;;;;;;5071211;28;20369;-69
2024/02/07 11:46:12;;;;;;;8.55;4.32;;;19.00;72.00;;;;;;5071224;28;20035;-69
2024/02/07 11:48:41;;;;;;;7.78;4.18;;;19.00;72.00;;;;;;5071347;28;20043;-69
2024/02/07 11:51:11;;;;;;;10.07;4.07;;;19.00;72.00;;;;;;5070967;28;20511;-68
2024/02/07 11:53:40;;;;;;;10.88;3.97;;;19.00;71.90;;;;;;5071019;28;20028;-68
2024/02/07 11:56:13;;;;;;;7.90;3.65;;;19.00;72.00;;;;;;5071030;28;20033;-69
2024/02/07 11:58:44;;;;;;;7.88;4.05;;;19.00;71.90;;;;;;5071256;28;20036;-69
2024/02/07 12:01:10;;;;;;;8.82;4.07;;;19.00;71.90;;;;;;5070840;28;20029;-69
2024/02/07 12:03:39;;;;;;;9.77;4.03;;;19.00;71.90;;;;;;5071122;28;20032;-68
2024/02/07 12:06:09;;;;;;;8.80;3.70;;;19.00;71.90;;;;;;5071127;28;20056;-69
2024/02/07 12:08:38;;;;;;;5.40;3.53;;;19.00;71.90;;;;;;5072142;28;20024;-69
2024/02/07 12:11:08;;;;;;;8.20;3.65;;;19.00;71.90;;;;;;5074768;28;20025;-69
2024/02/07 12:13:35;;;;;;;7.05;3.85;;;19.00;71.90;;;;;;5074875;28;20501;-69
2024/02/07 12:16:01;;;;;;;8.38;3.55;;;19.00;71.90;;;;;;5075091;28;20094;-69
2024/02/07 12:18:27;;;;;;;9.60;3.55;;;19.00;71.90;;;;;;5074737;28;20090;-69
2024/02/07 12:20:59;;;;;;;5.97;3.90;;;19.00;71.90;;;;;;5073042;28;20033;-69
2024/02/07 12:23:25;;;;;;;5.50;3.15;;;19.00;71.90;;;;;;5074568;28;20033;-68
2024/02/07 12:25:57;;;;;;;7.50;3.42;;;19.00;71.90;;;;;;5074719;28;20024;-68
2024/02/07 12:28:25;;;;;;;6.18;3.50;;;19.00;71.90;;;;;;5074567;28;20036;-68
2024/02/07 12:30:53;;;;;;;5.35;3.30;;;19.00;71.90;;;;;;5074487;28;20024;-69
2024/02/07 12:33:18;;;;;;;4.82;3.13;;;19.00;71.90;;;;;;5074326;28;20028;-69
2024/02/07 12:35:51;;;;;;;5.38;3.90;;;19.00;71.90;;;;;;5074330;28;20452;-69
2024/02/07 12:38:17;;;;;;;6.57;3.10;;;19.00;71.90;;;;;;5074390;28;20024;-69
2024/02/07 12:40:46;;;;;;;9.13;3.97;;;19.00;71.90;;;;;;5074266;28;20017;-70
2024/02/07 12:43:11;;;;;;;5.53;3.78;;;19.00;71.90;;;;;;5074978;28;20021;-69
2024/02/07 12:45:37;;;;;;;5.57;3.10;;;19.00;71.90;;;;;;5074351;28;20025;-68
2024/02/07 12:48:03;;;;;;;6.28;3.25;;;19.00;71.90;;;;;;5074301;28;20036;-69
2024/02/07 12:50:29;;;;;;;6.75;3.22;;;19.00;71.90;;;;;;5074029;28;20021;-69
2024/02/07 12:52:55;;;;;;;6.18;3.78;;;19.00;71.90;;;;;;5074151;28;20111;-69
2024/02/07 12:55:21;;;;;;;5.40;3.08;;;19.00;71.90;;;;;;5074183;28;20055;-69
2024/02/07 12:57:46;;;;;;;5.75;3.20;;;19.00;71.80;;;;;;5074098;28;20052;-69
2024/02/07 13:00:13;;;;;;;5.65;3.08;;;19.00;71.80;;;;;;5073793;28;20024;-66
2024/02/07 13:02:48;;;;;;;5.22;3.38;;;19.00;71.80;;;;;;5073851;28;20032;-69
2024/02/07 13:05:14;;;;;;;4.90;2.70;;;19.00;71.80;;;;;;5074319;28;20059;-69
2024/02/07 13:07:40;;;;;;;5.88;2.88;;;19.00;71.80;;;;;;5074061;28;20020;-69
2024/02/07 13:10:07;;;;;;;5.15;2.80;;;19.00;71.80;;;;;;5073776;28;20020;-66
2024/02/07 13:12:35;;;;;;;6.32;3.25;;;19.00;71.80;;;;;;5074126;28;20158;-68
2024/02/07 13:15:01;;;;;;;5.70;3.33;;;19.00;71.80;;;;;;5074055;28;20040;-69
2024/02/07 13:17:27;;;;;;;5.45;3.00;;;19.00;71.80;;;;;;5073901;28;20400;-68
2024/02/07 13:19:52;;;;;;;4.45;2.90;;;18.90;71.80;;;;;;5073392;28;20024;-69
2024/02/07 13:22:18;;;;;;;4.80;3.03;;;19.00;71.80;;;;;;5073481;28;20025;-68
2024/02/07 13:24:43;;;;;;;6.43;3.55;;;19.00;71.80;;;;;;5073183;28;20041;-68
2024/02/07 13:27:09;;;;;;;5.10;2.67;;;19.00;71.80;;;;;;5073748;28;20111;-68
2024/02/07 13:29:40;;;;;;;4.47;2.95;;;19.00;71.80;;;;;;5073528;28;20024;-68
2024/02/07 13:32:10;;;;;;;4.93;2.63;;;19.00;71.80;;;;;;5073399;28;20492;-68
2024/02/07 13:34:36;;;;;;;3.65;2.47;;;19.00;71.80;;;;;;5073399;28;20028;-69
2024/02/07 13:37:02;;;;;;;4.50;2.83;;;19.00;71.70;;;;;;5073295;28;20036;-68
2024/02/07 13:39:28;;;;;;;4.45;2.70;;;19.00;71.70;;;;;;5073421;28;20024;-68